Airfield :
LOGIN :

Register | Disclaimer

   EN    FR    IT 

 










Legend :    VFR   Marginal VFR   IFR   Intensive IFR   Very Intensive IFR
Visi :
Ceiling :
>= 8 km
>= 3000ft
5 to 8 km
1000 to 3000 ft
1500m to 5 km
500 to 1000 ft
800 to 1500m
200 to 500 ft
< 800m
< 200 ft
Symbols :   Thunderstorms  Fog  Heavy snow  Heavy precipitations  Wind > 20 kt
SIGMETs :     Misc.  Thunderstorms  Icing  Turbulence  Mountain Waves  Volcanic Ashes







- Airport Elevation : 665 ft
- IATA code : NOC


EIKN - Connaught / Knock- Ireland West

CURRENT METAR :
  • 242100Z 33010KT 9999 FEW022 SCT042 14/13 Q1020 NOSIG

EXPIRED METARs :
  • 242030Z 34008KT 9999 FEW020CB SCT040 BKN120 15/13 Q1020 NOSIG
  • 242000Z 33010KT 9999 FEW020CB SCT032 BKN120 15/14 Q1019 NOSIG
  • 241930Z 34007KT 9999 FEW020CB BKN040 16/14 Q1019 NOSIG
  • 241900Z 35007KT 320V020 9999 FEW018 FEW020CB SCT110 17/14 Q1019 NOSIG
  • 241830Z 35004KT 320V040 9999 SCT018 FEW020CB SCT038 17/14 Q1019 RERA NOSIG

TAF TAF EIKN
Valid from the 24 at 18:00 until the 25 at 18:00 UTC


241700Z 2418/2518 34010KT 9999 BKN020
PROB30
TEMPO 2418/2419 SHRA BKN014 SCT020CB
BECMG 2420/2422 2000 BR BKN004
PROB30
TEMPO 2422/2506 BKN001
BECMG 2506/2509 9999 NSW FEW010 BKN025
BECMG 2508/2510 03007KT
PROB30
TEMPO 2515/2518 -SHRA SCT020CB
No reported NOTAMs for that airfield.



MET'MAP, your aeronautical weather chart ! - Copyright ORBIFLY December 2007 - Disclaimer

ORBIFLY MET'MAP TEAM :

Programming & Development : Alexandra Zaïnal
Concept & Development : Baudouin d'Aumeries
Co-Development & Prog : Marc-Olivier Méhu
Technical & hardware support : Manuel Goepfert

Contact : metmap@orbifly.com




SOURCES & CREDITS :

   NOAA